createdAt,value
2023-03-06T00:01:17.794Z,66.93
2023-03-06T00:03:45.684Z,66.99
2023-03-06T00:06:13.615Z,67.00
2023-03-06T00:08:44.431Z,66.93
2023-03-06T00:11:14.910Z,67.04
2023-03-06T00:13:42.685Z,67.08
2023-03-06T00:16:15.631Z,66.97
2023-03-06T00:18:44.161Z,67.01
2023-03-06T00:21:14.139Z,67.00
2023-03-06T00:23:41.913Z,67.07
2023-03-06T00:26:10.284Z,67.04
2023-03-06T00:28:38.247Z,67.19
2023-03-06T00:31:06.294Z,67.12
2023-03-06T00:33:34.161Z,67.10
2023-03-06T00:36:05.040Z,67.17
2023-03-06T00:38:37.492Z,67.18
2023-03-06T00:41:13.448Z,67.08
2023-03-06T00:43:44.315Z,67.12
2023-03-06T00:46:12.248Z,67.09
2023-03-06T00:48:42.276Z,67.03
2023-03-06T00:51:12.805Z,67.05
2023-03-06T00:53:41.604Z,67.12
2023-03-06T00:56:09.473Z,67.14
2023-03-06T00:58:37.767Z,67.05
2023-03-06T01:01:05.895Z,67.06
2023-03-06T01:03:34.080Z,67.13
2023-03-06T01:06:02.141Z,67.12
2023-03-06T01:08:30.221Z,66.95
2023-03-06T01:10:58.295Z,67.08
2023-03-06T01:13:36.100Z,67.07
2023-03-06T01:16:10.351Z,67.10
2023-03-06T01:18:39.106Z,67.11
2023-03-06T01:21:07.318Z,67.18
2023-03-06T01:23:35.257Z,67.18
2023-03-06T01:26:03.703Z,67.16
2023-03-06T01:28:34.129Z,67.18
2023-03-06T01:31:02.142Z,67.05
2023-03-06T01:33:30.342Z,67.08
2023-03-06T01:35:58.208Z,67.21
2023-03-06T01:38:28.458Z,67.27
2023-03-06T01:41:04.500Z,67.18
2023-03-06T01:43:35.614Z,67.23
2023-03-06T01:46:26.621Z,67.13
2023-03-06T01:49:09.174Z,67.29
2023-03-06T01:51:48.487Z,67.17
2023-03-06T01:54:28.245Z,67.23
2023-03-06T01:57:11.882Z,67.26
2023-03-06T01:59:42.134Z,67.22
2023-03-06T02:02:21.963Z,67.06
2023-03-06T02:04:53.389Z,67.27
2023-03-06T02:07:21.942Z,67.34
2023-03-06T02:09:52.268Z,67.34
2023-03-06T02:12:21.419Z,67.32
2023-03-06T02:14:50.179Z,67.42
2023-03-06T02:17:20.600Z,67.31
2023-03-06T02:20:01.306Z,67.38
2023-03-06T02:22:46.366Z,67.33
2023-03-06T02:25:26.507Z,67.39
2023-03-06T02:27:54.674Z,67.45
2023-03-06T02:30:26.144Z,67.41
2023-03-06T02:32:55.025Z,67.50
2023-03-06T02:35:26.846Z,67.40
2023-03-06T02:37:57.978Z,67.50
2023-03-06T02:40:26.670Z,67.59
2023-03-06T02:42:57.280Z,67.37
2023-03-06T02:45:38.309Z,67.49
2023-03-06T02:48:16.462Z,67.61
2023-03-06T02:50:45.924Z,67.61
2023-03-06T02:53:16.811Z,67.55
2023-03-06T02:55:50.302Z,67.50
2023-03-06T02:58:22.313Z,67.46
2023-03-06T03:00:50.759Z,67.52
2023-03-06T03:03:19.007Z,67.53
2023-03-06T03:05:47.288Z,67.43
2023-03-06T03:08:15.280Z,67.49
2023-03-06T03:10:43.354Z,67.45
2023-03-06T03:13:14.224Z,67.44
2023-03-06T03:15:42.664Z,67.60
2023-03-06T03:18:11.947Z,67.69
2023-03-06T03:20:42.802Z,67.61
2023-03-06T03:23:13.579Z,67.67
2023-03-06T03:25:41.496Z,67.71
2023-03-06T03:28:09.825Z,67.71
2023-03-06T03:30:39.657Z,67.66
2023-03-06T03:33:07.986Z,67.77
2023-03-06T03:35:36.088Z,67.78
2023-03-06T03:38:04.101Z,67.78
2023-03-06T03:40:32.499Z,67.85
2023-03-06T03:43:01.185Z,67.81
2023-03-06T03:45:29.030Z,67.90
2023-03-06T03:47:57.025Z,67.99
2023-03-06T03:50:27.350Z,68.01
2023-03-06T03:53:04.573Z,67.98
2023-03-06T03:55:32.784Z,68.12
2023-03-06T03:58:01.050Z,67.98
2023-03-06T04:00:29.138Z,67.96
2023-03-06T04:02:56.913Z,67.94
2023-03-06T04:05:33.972Z,67.94
2023-03-06T04:08:03.317Z,67.99
2023-03-06T04:10:31.639Z,67.97
2023-03-06T04:13:02.130Z,68.01
2023-03-06T04:15:32.845Z,68.03
2023-03-06T04:18:00.756Z,67.90
2023-03-06T04:20:29.021Z,68.02
2023-03-06T04:22:59.990Z,68.08
2023-03-06T04:25:27.832Z,68.11
2023-03-06T04:27:55.817Z,68.10
2023-03-06T04:30:34.124Z,68.17
2023-03-06T04:33:02.610Z,68.14
2023-03-06T04:35:32.189Z,67.96
2023-03-06T04:38:00.081Z,68.09
2023-03-06T04:40:31.387Z,68.16
2023-03-06T04:43:00.549Z,68.16
2023-03-06T04:45:30.417Z,68.12
2023-03-06T04:48:11.196Z,68.11
2023-03-06T04:50:40.265Z,68.15
2023-03-06T04:53:19.702Z,67.92
2023-03-06T04:55:48.090Z,67.87
2023-03-06T04:58:16.501Z,68.12
2023-03-06T05:00:44.732Z,67.92
2023-03-06T05:03:15.295Z,67.91
2023-03-06T05:05:43.196Z,68.15
2023-03-06T05:08:15.324Z,68.02
2023-03-06T05:10:44.917Z,68.02
2023-03-06T05:13:47.432Z,67.89
2023-03-06T05:16:15.345Z,67.95
2023-03-06T05:18:43.304Z,67.73
2023-03-06T05:21:11.331Z,67.70
2023-03-06T05:23:39.125Z,67.95
2023-03-06T05:26:15.542Z,68.07
2023-03-06T05:28:44.663Z,67.97
2023-03-06T05:31:12.425Z,68.10
2023-03-06T05:33:40.967Z,68.00
2023-03-06T05:36:09.723Z,68.04
2023-03-06T05:38:37.611Z,68.04
2023-03-06T05:41:05.488Z,67.86
2023-03-06T05:43:36.295Z,67.95
2023-03-06T05:46:06.263Z,67.92
2023-03-06T05:48:35.238Z,68.16
2023-03-06T05:51:04.554Z,68.17
2023-03-06T05:53:32.896Z,68.36
2023-03-06T05:56:06.908Z,68.37
2023-03-06T05:58:35.083Z,68.36
2023-03-06T06:01:14.584Z,68.60
2023-03-06T06:03:42.923Z,68.53
2023-03-06T06:06:13.198Z,68.57
2023-03-06T06:08:44.499Z,68.55
2023-03-06T06:11:13.472Z,68.60
2023-03-06T06:13:42.179Z,68.56
2023-03-06T06:16:16.725Z,68.40
2023-03-06T06:18:45.790Z,68.46
2023-03-06T06:21:17.640Z,68.55
2023-03-06T06:23:46.270Z,68.50
2023-03-06T06:26:14.033Z,68.48
2023-03-06T06:28:41.836Z,68.54
2023-03-06T06:31:12.515Z,68.55
2023-03-06T06:33:42.071Z,68.53
2023-03-06T06:36:20.678Z,68.76
2023-03-06T06:38:49.458Z,68.72
2023-03-06T06:44:12.597Z,68.68
2023-03-06T06:49:29.708Z,68.65
2023-03-06T06:51:58.096Z,68.73
2023-03-06T06:54:27.695Z,68.65
2023-03-06T06:56:55.648Z,68.87
2023-03-06T06:59:31.653Z,69.00
2023-03-06T07:01:59.498Z,68.75
2023-03-06T07:04:27.240Z,68.89
2023-03-06T07:06:57.020Z,68.87
2023-03-06T07:09:25.340Z,68.89
2023-03-06T07:11:53.784Z,68.77
2023-03-06T07:14:25.530Z,69.11
2023-03-06T07:16:53.375Z,68.61
2023-03-06T07:19:21.782Z,68.80
2023-03-06T07:21:49.712Z,68.78
2023-03-06T07:24:20.613Z,68.81
2023-03-06T07:26:58.401Z,68.59
2023-03-06T07:29:26.952Z,68.65
2023-03-06T07:32:02.216Z,68.87
2023-03-06T07:34:43.959Z,68.79
2023-03-06T07:37:12.493Z,68.74
2023-03-06T07:39:43.209Z,68.73
2023-03-06T07:42:14.794Z,69.09
2023-03-06T07:44:42.946Z,68.86
2023-03-06T07:47:13.912Z,68.99
2023-03-06T07:49:42.319Z,68.75
2023-03-06T07:52:11.241Z,68.90
2023-03-06T07:54:39.246Z,68.75
2023-03-06T07:57:07.074Z,68.79
2023-03-06T07:59:34.862Z,68.18
2023-03-06T08:02:03.705Z,68.20
2023-03-06T08:04:32.231Z,68.65
2023-03-06T08:07:00.407Z,68.53
2023-03-06T08:09:36.987Z,69.04
2023-03-06T08:12:27.106Z,68.61
2023-03-06T08:14:56.004Z,68.56
2023-03-06T08:17:23.984Z,68.13
2023-03-06T08:19:51.823Z,68.48
2023-03-06T08:22:20.075Z,68.63
2023-03-06T08:24:47.832Z,68.53
2023-03-06T08:27:16.298Z,68.89
2023-03-06T08:29:44.212Z,68.92
2023-03-06T08:32:12.400Z,68.95
2023-03-06T08:34:41.200Z,68.74
2023-03-06T08:37:09.751Z,68.87
2023-03-06T08:39:37.940Z,68.55
2023-03-06T08:42:05.793Z,68.55
2023-03-06T08:44:56.333Z,68.98
2023-03-06T08:47:24.633Z,68.51
2023-03-06T08:49:52.872Z,68.48
2023-03-06T08:52:21.045Z,68.48
2023-03-06T08:54:48.823Z,68.53
2023-03-06T08:57:16.741Z,68.55
2023-03-06T08:59:44.548Z,68.32
2023-03-06T09:02:15.371Z,68.14
2023-03-06T09:04:44.112Z,68.34
2023-03-06T09:07:12.824Z,68.43
2023-03-06T09:09:40.747Z,68.53
2023-03-06T09:12:08.600Z,68.28
2023-03-06T09:14:39.295Z,68.48
2023-03-06T09:17:07.646Z,68.25
2023-03-06T09:19:35.941Z,68.20
2023-03-06T09:22:03.833Z,68.28
2023-03-06T09:24:31.771Z,68.25
2023-03-06T09:26:59.799Z,68.02
2023-03-06T09:29:27.955Z,67.73
2023-03-06T09:31:56.220Z,67.83
2023-03-06T09:34:24.740Z,67.95
2023-03-06T09:36:57.438Z,68.19
2023-03-06T09:39:26.231Z,68.26
2023-03-06T09:41:55.492Z,68.33
2023-03-06T09:44:27.643Z,68.28
2023-03-06T09:47:17.644Z,68.26
2023-03-06T09:50:04.871Z,68.24
2023-03-06T09:52:46.046Z,68.20
2023-03-06T09:55:19.200Z,68.07
2023-03-06T09:58:09.224Z,67.90
2023-03-06T10:00:59.312Z,67.63
2023-03-06T10:03:38.956Z,67.92
2023-03-06T10:06:16.573Z,67.85
2023-03-06T10:08:55.709Z,67.70
2023-03-06T10:11:44.809Z,67.57
2023-03-06T10:14:35.268Z,67.61
2023-03-06T10:17:05.086Z,67.18
2023-03-06T10:19:37.158Z,67.47
2023-03-06T10:22:25.146Z,67.49
2023-03-06T10:25:19.923Z,66.86
2023-03-06T10:27:48.314Z,66.83
2023-03-06T10:30:58.660Z,67.12
2023-03-06T10:33:38.586Z,67.05
2023-03-06T10:36:06.649Z,67.02
2023-03-06T10:38:37.819Z,66.98
2023-03-06T10:41:12.402Z,67.03
2023-03-06T10:43:45.405Z,66.93
2023-03-06T10:46:29.419Z,67.04
2023-03-06T10:49:00.717Z,66.43
2023-03-06T10:51:30.844Z,66.83
2023-03-06T10:54:23.978Z,66.55
2023-03-06T10:56:52.040Z,66.47
2023-03-06T10:59:25.337Z,66.45
2023-03-06T11:02:33.344Z,65.97
2023-03-06T11:05:01.927Z,66.28
2023-03-06T11:07:36.995Z,66.42
2023-03-06T11:10:22.101Z,66.12
2023-03-06T11:13:07.739Z,66.15
2023-03-06T11:15:35.886Z,65.94
2023-03-06T11:18:24.906Z,65.81
2023-03-06T11:20:55.768Z,65.97
2023-03-06T11:23:36.305Z,65.35
2023-03-06T11:26:16.415Z,64.71
2023-03-06T11:28:59.432Z,65.18
2023-03-06T12:15:33.975Z,62.01
2023-03-06T12:18:12.701Z,62.29
2023-03-06T12:20:47.285Z,60.67
2023-03-06T12:23:44.769Z,61.93
2023-03-06T12:39:08.405Z,62.15
2023-03-06T12:41:42.700Z,62.19
2023-03-06T12:44:38.250Z,62.31
2023-03-06T12:47:09.869Z,61.95
2023-03-06T12:49:41.564Z,61.16
2023-03-06T12:52:11.046Z,61.18
2023-03-06T12:54:40.519Z,62.26
2023-03-06T12:57:08.553Z,62.13
2023-03-06T12:59:36.631Z,62.06
2023-03-06T13:02:39.251Z,61.59
2023-03-06T13:05:29.622Z,61.82
2023-03-06T13:08:32.102Z,60.90
2023-03-06T13:11:41.271Z,61.86
2023-03-06T13:14:54.207Z,61.98
2023-03-06T13:17:27.706Z,61.83
2023-03-06T13:20:12.461Z,61.81
2023-03-06T13:22:40.841Z,61.58
2023-03-06T13:25:17.500Z,61.20
2023-03-06T13:27:53.775Z,60.84
2023-03-06T13:30:21.896Z,61.04
2023-03-06T13:32:52.088Z,59.94
2023-03-06T13:35:31.610Z,60.73
2023-03-06T13:37:59.798Z,60.80
2023-03-06T13:40:28.082Z,60.46
2023-03-06T13:43:06.538Z,60.55
2023-03-06T13:45:38.087Z,60.72
2023-03-06T13:48:41.569Z,60.78
2023-03-06T13:50:54.972Z,60.61
2023-03-06T13:53:41.540Z,60.56
2023-03-06T13:56:24.092Z,60.71
2023-03-06T13:59:23.637Z,60.73
2023-03-06T14:02:17.163Z,60.95
2023-03-06T14:04:54.053Z,60.62
2023-03-06T14:07:29.703Z,60.39
2023-03-06T14:10:00.416Z,60.26
2023-03-06T14:12:34.158Z,60.49
2023-03-06T14:15:41.475Z,60.55
2023-03-06T14:18:25.764Z,60.05
2023-03-06T14:21:05.706Z,60.53
2023-03-06T14:23:46.548Z,59.92
2023-03-06T14:26:18.605Z,60.25
2023-03-06T14:28:51.258Z,60.02
2023-03-06T14:31:21.410Z,60.08
2023-03-06T14:33:53.842Z,59.94
2023-03-06T14:36:23.137Z,60.12
2023-03-06T14:38:54.982Z,59.92
2023-03-06T14:41:28.262Z,59.85
2023-03-06T14:44:16.021Z,59.77
2023-03-06T14:46:43.704Z,59.67
2023-03-06T14:49:15.878Z,59.85
2023-03-06T14:51:45.934Z,59.48
2023-03-06T14:54:17.021Z,59.58
2023-03-06T14:56:46.863Z,59.33
2023-03-06T14:59:17.965Z,59.53
2023-03-06T15:01:50.913Z,58.88
2023-03-06T15:04:41.684Z,59.18
2023-03-06T15:07:15.735Z,59.37
2023-03-06T15:09:53.436Z,59.49
2023-03-06T15:12:23.893Z,59.56
2023-03-06T15:15:06.084Z,59.68
2023-03-06T15:17:44.472Z,59.65
2023-03-06T15:20:36.063Z,59.65
2023-03-06T15:23:34.355Z,59.72
2023-03-06T15:26:25.909Z,59.80
2023-03-06T15:29:03.394Z,59.97
2023-03-06T15:31:40.276Z,59.74
2023-03-06T15:34:07.309Z,59.60
2023-03-06T15:36:36.644Z,59.51
2023-03-06T15:39:34.282Z,59.67
2023-03-06T15:42:20.163Z,59.69
2023-03-06T15:44:55.455Z,59.62
2023-03-06T15:47:23.338Z,59.67
2023-03-06T15:49:52.435Z,59.78
2023-03-06T15:52:20.440Z,59.77
2023-03-06T15:54:47.391Z,59.77
2023-03-06T15:57:28.671Z,59.65
2023-03-06T15:59:55.920Z,59.62
2023-03-06T16:02:23.713Z,59.76
2023-03-06T16:04:51.248Z,59.66
2023-03-06T16:07:17.821Z,59.64
2023-03-06T16:09:44.863Z,59.76
2023-03-06T16:12:21.141Z,59.82
2023-03-06T16:14:48.616Z,59.77
2023-03-06T16:17:16.016Z,59.97
2023-03-06T16:19:42.746Z,59.95
2023-03-06T16:22:09.242Z,59.97
2023-03-06T16:24:36.750Z,60.01
2023-03-06T16:27:04.273Z,60.09
2023-03-06T16:29:31.081Z,60.15
2023-03-06T16:31:59.995Z,60.05
2023-03-06T16:34:27.218Z,60.06
2023-03-06T16:36:53.959Z,60.28
2023-03-06T16:39:23.122Z,60.12
2023-03-06T16:41:50.711Z,60.35
2023-03-06T16:44:17.656Z,60.18
2023-03-06T16:46:46.454Z,60.29
2023-03-06T16:49:18.672Z,60.49
2023-03-06T16:51:45.655Z,60.27
2023-03-06T16:54:13.266Z,60.09
2023-03-06T16:56:40.189Z,59.95
2023-03-06T16:59:06.598Z,60.08
2023-03-06T17:01:33.154Z,60.14
2023-03-06T17:03:59.679Z,60.08
2023-03-06T17:06:27.107Z,60.61
2023-03-06T17:08:53.984Z,60.97
2023-03-06T17:11:20.721Z,61.34
2023-03-06T17:13:47.759Z,60.66
2023-03-06T17:16:15.863Z,60.65
2023-03-06T17:18:44.586Z,60.85
2023-03-06T17:21:14.928Z,61.12
2023-03-06T17:23:41.746Z,60.85
2023-03-06T17:26:14.345Z,61.17
2023-03-06T17:28:41.887Z,61.31
2023-03-06T17:31:15.945Z,61.14
2023-03-06T17:33:43.117Z,61.18
2023-03-06T17:36:11.199Z,61.26
2023-03-06T17:38:37.740Z,61.04
2023-03-06T17:41:06.063Z,60.98
2023-03-06T17:43:33.236Z,60.89
2023-03-06T17:46:04.621Z,60.53
2023-03-06T17:48:32.419Z,61.02
2023-03-06T17:50:58.931Z,60.90
2023-03-06T17:53:26.378Z,60.85
2023-03-06T17:55:53.249Z,61.19
2023-03-06T17:58:19.627Z,61.63
2023-03-06T18:00:46.627Z,61.40
2023-03-06T18:03:13.724Z,61.71
2023-03-06T18:05:40.334Z,61.44
2023-03-06T18:08:09.581Z,61.58
2023-03-06T18:10:40.671Z,61.67
2023-03-06T18:13:08.617Z,61.66
2023-03-06T18:15:40.126Z,61.71
2023-03-06T18:18:08.000Z,61.85
2023-03-06T18:20:39.559Z,62.06
2023-03-06T18:23:05.998Z,61.91
2023-03-06T18:25:33.118Z,61.92
2023-03-06T18:28:00.058Z,62.07
2023-03-06T18:30:27.169Z,62.03
2023-03-06T18:32:54.102Z,62.03
2023-03-06T18:35:20.857Z,61.96
2023-03-06T18:37:47.338Z,62.06
2023-03-06T18:40:14.632Z,62.09
2023-03-06T18:42:41.603Z,62.11
2023-03-06T18:45:08.862Z,62.62
2023-03-06T18:47:35.506Z,62.56
2023-03-06T18:50:02.692Z,62.80
2023-03-06T18:52:29.851Z,62.55
2023-03-06T18:54:56.984Z,62.70
2023-03-06T18:57:23.443Z,62.44
2023-03-06T18:59:50.101Z,62.64
2023-03-06T19:02:16.669Z,62.52
2023-03-06T19:04:43.109Z,62.49
2023-03-06T19:07:10.121Z,62.64
2023-03-06T19:09:38.348Z,62.72
2023-03-06T19:12:05.260Z,62.75
2023-03-06T19:14:32.082Z,62.83
2023-03-06T19:16:58.533Z,62.98
2023-03-06T19:19:25.781Z,62.78
2023-03-06T19:21:53.454Z,62.94
2023-03-06T19:24:20.555Z,63.01
2023-03-06T19:26:47.023Z,62.97
2023-03-06T19:29:16.456Z,62.86
2023-03-06T19:31:46.356Z,63.05
2023-03-06T19:34:14.106Z,63.06
2023-03-06T19:36:46.124Z,62.98
2023-03-06T19:39:17.452Z,62.97
2023-03-06T19:41:45.843Z,63.32
2023-03-06T19:44:13.979Z,63.15
2023-03-06T19:46:40.682Z,63.52
2023-03-06T19:49:11.502Z,63.45
2023-03-06T19:51:41.351Z,63.38
2023-03-06T19:54:28.180Z,63.45
2023-03-06T19:57:00.996Z,63.45
2023-03-06T19:59:30.724Z,63.49
2023-03-06T20:01:59.180Z,63.39
2023-03-06T20:04:29.285Z,64.07
2023-03-06T20:07:00.345Z,63.70
2023-03-06T20:09:27.773Z,63.63
2023-03-06T20:11:57.006Z,64.02
2023-03-06T20:14:28.354Z,64.09
2023-03-06T20:17:00.806Z,64.01
2023-03-06T20:19:31.804Z,63.98
2023-03-06T20:22:00.903Z,63.98
2023-03-06T20:24:27.752Z,63.76
2023-03-06T20:26:59.202Z,63.95
2023-03-06T20:29:29.121Z,64.17
2023-03-06T20:32:01.432Z,64.47
2023-03-06T20:34:31.770Z,64.44
2023-03-06T20:37:01.300Z,64.09
2023-03-06T20:39:31.585Z,64.15
2023-03-06T20:41:59.509Z,64.65
2023-03-06T20:44:26.864Z,64.45
2023-03-06T20:46:54.629Z,64.39
2023-03-06T20:49:21.797Z,64.50
2023-03-06T20:51:49.742Z,64.34
2023-03-06T20:54:16.711Z,64.71
2023-03-06T20:56:48.155Z,64.49
2023-03-06T20:59:14.968Z,64.82
2023-03-06T21:01:44.444Z,64.67
2023-03-06T21:04:13.274Z,64.75
2023-03-06T21:06:44.661Z,64.97
2023-03-06T21:09:13.299Z,64.82
2023-03-06T21:11:39.907Z,65.14
2023-03-06T21:14:06.489Z,65.05
2023-03-06T21:16:33.350Z,64.97
2023-03-06T21:19:00.532Z,65.10
2023-03-06T21:21:30.443Z,65.26
2023-03-06T21:23:58.784Z,65.19
2023-03-06T21:26:29.965Z,65.36
2023-03-06T21:28:58.275Z,65.48
2023-03-06T21:31:26.523Z,65.27
2023-03-06T21:33:53.503Z,65.32
2023-03-06T21:36:21.265Z,65.47
2023-03-06T21:38:49.545Z,65.65
2023-03-06T21:41:19.467Z,65.55
2023-03-06T21:43:46.343Z,65.73
2023-03-06T21:46:13.594Z,65.65
2023-03-06T21:48:40.659Z,65.78
2023-03-06T21:51:09.920Z,66.02
2023-03-06T21:53:37.908Z,65.68
2023-03-06T21:56:04.635Z,65.52
2023-03-06T21:58:31.291Z,65.64
2023-03-06T22:00:58.313Z,65.65
2023-03-06T22:03:25.154Z,65.55
2023-03-06T22:05:54.285Z,65.52
2023-03-06T22:08:23.300Z,65.62
2023-03-06T22:10:50.069Z,65.48
2023-03-06T22:13:18.682Z,65.66
2023-03-06T22:15:52.576Z,65.52
2023-03-06T22:18:19.106Z,65.60
2023-03-06T22:20:45.621Z,65.71
2023-03-06T22:23:12.586Z,65.88
2023-03-06T22:25:39.310Z,65.98
2023-03-06T22:28:07.130Z,66.02
2023-03-06T22:30:33.940Z,65.97
2023-03-06T22:33:00.532Z,66.16
2023-03-06T22:35:26.967Z,66.25
2023-03-06T22:37:53.951Z,66.08
2023-03-06T22:40:21.410Z,66.16
2023-03-06T22:42:47.846Z,66.51
2023-03-06T22:45:14.280Z,66.37
2023-03-06T22:47:40.797Z,66.04
2023-03-06T22:50:08.563Z,66.04
2023-03-06T22:52:35.978Z,66.10
2023-03-06T22:55:02.536Z,66.41
2023-03-06T22:57:29.546Z,66.53
2023-03-06T22:59:55.960Z,66.60
2023-03-06T23:02:23.039Z,66.66
2023-03-06T23:04:53.244Z,66.76
2023-03-06T23:07:23.424Z,66.75
2023-03-06T23:09:49.852Z,66.69
2023-03-06T23:12:16.284Z,66.70
2023-03-06T23:14:43.056Z,66.66
2023-03-06T23:17:10.050Z,66.69
2023-03-06T23:19:37.494Z,66.70
2023-03-06T23:22:03.973Z,66.72
2023-03-06T23:24:32.677Z,66.78
2023-03-06T23:27:00.036Z,66.99
2023-03-06T23:29:26.441Z,66.83
2023-03-06T23:31:53.300Z,66.98
2023-03-06T23:34:19.775Z,66.72
2023-03-06T23:36:46.407Z,66.91
2023-03-06T23:39:13.911Z,66.87
2023-03-06T23:41:40.397Z,66.93
2023-03-06T23:44:06.961Z,67.11
2023-03-06T23:46:34.293Z,67.07
2023-03-06T23:49:00.749Z,67.24
2023-03-06T23:51:27.168Z,67.20
2023-03-06T23:53:56.818Z,66.99
2023-03-06T23:56:28.139Z,67.17
2023-03-06T23:58:55.128Z,67.15
